Time;durP1;ratioP1;P1;durP2;ratioP2;P2;SDS_P1;SDS_P2;PMS_P1;PMS_P2;Temp;Humidity;BMP_temperature;BMP_pressure;BME280_temperature;BME280_humidity;BME280_pressure;Samples;Min_cycle;Max_cycle;Signal;HPM_P1;HPM_P2
2022/06/08 00:01:21;;;;;;;15.20;3.42;;;14.50;99.90;;;;;;5048330;28;20064;-77
2022/06/08 00:03:51;;;;;;;9.52;3.22;;;14.50;99.90;;;;;;5057905;28;20067;-77
2022/06/08 00:06:18;;;;;;;13.48;3.72;;;14.50;99.90;;;;;;5051015;28;20025;-78
2022/06/08 00:08:44;;;;;;;14.93;3.65;;;14.40;99.90;;;;;;5048669;28;20024;-79
2022/06/08 00:11:10;;;;;;;12.77;3.30;;;14.50;99.90;;;;;;5046701;28;20388;-76
2022/06/08 00:13:36;;;;;;;12.82;4.15;;;14.50;99.90;;;;;;5049068;28;20032;-77
2022/06/08 00:16:02;;;;;;;11.13;3.15;;;14.50;99.90;;;;;;5058963;28;20033;-79
2022/06/08 00:18:28;;;;;;;9.40;2.63;;;14.50;99.90;;;;;;5039235;28;20105;-76
2022/06/08 00:20:54;;;;;;;10.77;3.60;;;14.50;99.90;;;;;;5051448;28;20125;-76
2022/06/08 00:23:20;;;;;;;11.02;3.88;;;14.40;99.90;;;;;;5054682;28;20037;-77
2022/06/08 00:25:47;;;;;;;13.02;4.07;;;14.40;99.90;;;;;;5046780;28;20028;-76
2022/06/08 00:28:13;;;;;;;9.48;3.88;;;14.40;99.90;;;;;;5048943;28;20069;-75
2022/06/08 00:30:39;;;;;;;13.57;4.43;;;14.40;99.90;;;;;;5050066;28;20037;-77
2022/06/08 00:33:05;;;;;;;10.65;4.32;;;14.40;99.90;;;;;;5054262;28;20043;-79
2022/06/08 00:35:31;;;;;;;9.25;4.72;;;14.40;99.90;;;;;;5037836;28;20021;-75
2022/06/08 00:37:57;;;;;;;9.30;4.00;;;14.40;99.90;;;;;;5051596;28;20407;-80
2022/06/08 00:40:40;;;;;;;10.88;4.72;;;14.40;99.90;;;;;;5056476;28;20036;-77
2022/06/08 00:43:05;;;;;;;6.53;3.30;;;14.30;99.90;;;;;;5034399;28;20041;-80
2022/06/08 00:45:31;;;;;;;8.07;3.33;;;14.30;99.90;;;;;;5049220;28;20067;-82
2022/06/08 00:48:01;;;;;;;7.93;3.25;;;14.30;99.90;;;;;;5051050;28;20052;-76
2022/06/08 00:50:33;;;;;;;8.55;3.28;;;14.30;99.90;;;;;;5029936;28;20284;-77
2022/06/08 00:53:00;;;;;;;6.15;3.00;;;14.30;99.90;;;;;;5054251;28;20091;-78
2022/06/08 00:55:30;;;;;;;5.20;2.38;;;14.40;99.90;;;;;;5051841;28;20384;-77
2022/06/08 00:58:01;;;;;;;5.20;2.35;;;14.30;99.90;;;;;;5057299;28;20497;-77
2022/06/08 01:00:38;;;;;;;5.65;2.22;;;14.40;99.90;;;;;;5050937;28;20045;-76
2022/06/08 01:03:06;;;;;;;3.65;2.03;;;14.40;99.90;;;;;;5031783;28;20036;-75
2022/06/08 01:06:02;;;;;;;2.83;1.80;;;14.40;99.90;;;;;;5051093;28;20029;-77
2022/06/08 01:08:39;;;;;;;3.15;1.65;;;14.40;99.90;;;;;;5044285;28;20479;-77
2022/06/08 01:11:20;;;;;;;3.38;1.45;;;14.40;99.90;;;;;;5057325;28;20060;-77
2022/06/08 01:13:46;;;;;;;2.80;1.35;;;14.40;99.90;;;;;;5056504;28;20030;-79
2022/06/08 01:16:13;;;;;;;3.70;1.05;;;14.40;99.90;;;;;;5055021;28;20033;-79
2022/06/08 01:18:40;;;;;;;3.03;1.42;;;14.40;99.90;;;;;;5059561;28;20033;-82
2022/06/08 01:21:20;;;;;;;3.65;1.40;;;14.40;99.90;;;;;;5056859;28;20033;-83
2022/06/08 01:23:53;;;;;;;3.10;1.33;;;14.40;99.90;;;;;;5063909;28;20124;-81
2022/06/08 01:26:19;;;;;;;4.47;1.95;;;14.40;99.90;;;;;;5041363;28;20032;-79
2022/06/08 01:28:52;;;;;;;3.92;1.50;;;14.40;99.90;;;;;;5055470;28;20540;-83
2022/06/08 01:31:46;;;;;;;2.75;1.45;;;14.40;99.90;;;;;;5032965;28;20631;-80
2022/06/08 01:34:29;;;;;;;3.40;1.50;;;14.40;99.90;;;;;;5039419;28;20056;-78
2022/06/08 01:37:17;;;;;;;3.65;1.65;;;14.40;99.90;;;;;;5030135;28;20504;-81
2022/06/08 01:40:09;;;;;;;7.03;2.40;;;14.40;99.90;;;;;;5025895;28;20025;-83
2022/06/08 01:42:51;;;;;;;4.28;1.63;;;14.50;99.90;;;;;;5040126;28;20051;-81
2022/06/08 01:45:43;;;;;;;2.47;1.38;;;14.50;99.90;;;;;;5045942;28;20508;-82
2022/06/08 01:48:18;;;;;;;2.60;1.13;;;14.50;99.90;;;;;;5053950;28;20024;-79
2022/06/08 01:51:15;;;;;;;2.53;1.00;;;14.50;99.90;;;;;;5048812;28;20039;-80
2022/06/08 01:54:17;;;;;;;3.47;1.10;;;14.50;99.90;;;;;;5052711;28;20045;-80
2022/06/08 01:56:51;;;;;;;2.10;1.10;;;14.60;99.90;;;;;;5041299;28;20045;-78
2022/06/08 01:59:47;;;;;;;2.55;1.13;;;14.50;99.90;;;;;;5030653;28;20115;-82
2022/06/08 02:02:24;;;;;;;4.05;1.15;;;14.50;99.90;;;;;;5024583;28;20041;-83
2022/06/08 02:05:06;;;;;;;2.22;1.10;;;14.50;99.90;;;;;;5043652;28;20116;-79
2022/06/08 02:07:56;;;;;;;4.28;1.63;;;14.60;99.90;;;;;;5043154;28;20020;-79
2022/06/08 02:10:27;;;;;;;3.47;1.50;;;14.60;99.90;;;;;;5048553;28;21790;-82
2022/06/08 02:13:06;;;;;;;3.22;1.45;;;14.60;99.90;;;;;;5039523;28;20155;-82
2022/06/08 02:15:36;;;;;;;3.72;1.70;;;14.60;99.90;;;;;;5027437;28;20677;-82
2022/06/08 02:18:16;;;;;;;3.92;2.20;;;14.60;99.90;;;;;;5027441;28;20037;-84
2022/06/08 02:20:52;;;;;;;6.43;2.00;;;14.60;99.90;;;;;;5046470;28;20028;-85
2022/06/08 02:23:26;;;;;;;4.03;2.25;;;14.60;99.90;;;;;;5051435;28;20116;-81
2022/06/08 02:26:14;;;;;;;5.88;2.25;;;14.60;99.90;;;;;;5054066;28;20029;-80
2022/06/08 02:28:50;;;;;;;3.53;2.00;;;14.60;99.90;;;;;;5033075;28;20032;-85
2022/06/08 02:31:29;;;;;;;5.75;2.33;;;14.70;99.90;;;;;;5055041;28;20047;-83
2022/06/08 02:37:10;;;;;;;5.32;2.20;;;14.70;99.90;;;;;;5051704;28;20032;-81
2022/06/08 02:39:53;;;;;;;9.38;2.95;;;14.70;99.90;;;;;;5030058;28;20486;-80
2022/06/08 02:42:28;;;;;;;6.28;2.90;;;14.70;99.90;;;;;;5048536;28;20045;-80
2022/06/08 02:45:00;;;;;;;11.70;3.90;;;14.70;99.90;;;;;;5041375;28;20039;-81
2022/06/08 02:47:30;;;;;;;9.45;3.15;;;14.70;99.90;;;;;;5031793;28;20091;-83
2022/06/08 02:50:11;;;;;;;9.05;2.80;;;14.70;99.90;;;;;;5038258;28;20104;-82
2022/06/08 02:52:43;;;;;;;8.40;4.20;;;14.70;99.90;;;;;;5045761;28;20032;-83
2022/06/08 02:55:30;;;;;;;6.75;3.00;;;14.70;99.90;;;;;;5063820;28;20112;-87
2022/06/08 02:58:02;;;;;;;9.52;3.97;;;14.70;99.90;;;;;;5035699;28;20086;-84
2022/06/08 03:00:42;;;;;;;8.75;3.53;;;14.70;99.90;;;;;;5039173;28;20033;-81
2022/06/08 03:03:19;;;;;;;;;;;14.70;99.90;;;;;;5054343;28;20041;-82
2022/06/08 03:06:06;;;;;;;7.43;4.28;;;14.70;99.90;;;;;;5060807;28;19922;-85
2022/06/08 03:08:39;;;;;;;9.45;4.72;;;14.70;99.90;;;;;;5031653;28;20025;-87
2022/06/08 03:11:08;;;;;;;9.45;5.57;;;14.70;99.90;;;;;;5051526;28;20029;-84
2022/06/08 03:13:56;;;;;;;10.05;5.97;;;14.70;99.90;;;;;;5051697;28;20093;-83
2022/06/08 03:16:30;;;;;;;9.20;4.80;;;14.70;99.90;;;;;;5028152;28;20044;-76
2022/06/08 03:18:56;;;;;;;9.18;4.50;;;14.70;99.90;;;;;;5041131;28;20108;-79
2022/06/08 03:21:22;;;;;;;7.95;4.60;;;14.70;99.90;;;;;;5060656;28;20025;-81
2022/06/08 03:23:49;;;;;;;9.05;4.78;;;14.70;99.90;;;;;;5063197;28;20037;-82
2022/06/08 03:26:17;;;;;;;7.72;4.63;;;14.70;99.90;;;;;;5042590;28;20034;-80
2022/06/08 03:28:42;;;;;;;6.97;4.70;;;14.70;99.90;;;;;;5053200;28;20025;-79
2022/06/08 03:31:08;;;;;;;7.80;4.68;;;14.70;99.90;;;;;;5033844;28;20036;-80
2022/06/08 03:33:33;;;;;;;9.88;4.03;;;14.70;99.90;;;;;;5035698;28;20056;-79
2022/06/08 03:35:59;;;;;;;6.05;2.50;;;14.70;99.90;;;;;;5056352;28;20025;-80
2022/06/08 03:38:25;;;;;;;4.57;1.88;;;14.70;99.90;;;;;;5034615;28;20479;-79
2022/06/08 03:40:51;;;;;;;5.22;1.40;;;14.70;99.90;;;;;;5047394;28;20037;-77
2022/06/08 03:43:16;;;;;;;3.78;1.45;;;14.70;99.90;;;;;;5048869;28;20090;-78
2022/06/08 03:45:49;;;;;;;3.15;1.40;;;14.70;99.90;;;;;;5049615;28;20053;-79
2022/06/08 03:48:17;;;;;;;3.13;1.50;;;14.70;99.90;;;;;;5049047;28;20044;-79
2022/06/08 03:50:43;;;;;;;6.78;1.75;;;14.70;99.90;;;;;;5045651;28;20033;-83
2022/06/08 03:53:21;;;;;;;4.07;1.30;;;14.70;99.90;;;;;;5030839;28;20037;-79
2022/06/08 03:55:48;;;;;;;3.97;1.60;;;14.70;99.90;;;;;;5048336;28;20437;-80
2022/06/08 03:58:14;;;;;;;4.97;1.83;;;14.70;99.90;;;;;;5030684;28;20472;-78
2022/06/08 04:00:41;;;;;;;4.85;2.22;;;14.70;99.90;;;;;;5046505;28;20039;-79
2022/06/08 04:03:09;;;;;;;6.95;2.28;;;14.70;99.90;;;;;;5046760;28;20037;-78
2022/06/08 04:05:35;;;;;;;7.78;2.15;;;14.70;99.90;;;;;;5040022;28;20395;-76
2022/06/08 04:08:01;;;;;;;6.30;2.00;;;14.70;99.90;;;;;;5030260;28;20060;-79
2022/06/08 04:10:27;;;;;;;7.72;2.13;;;14.70;99.90;;;;;;5045481;28;20137;-79
2022/06/08 04:12:53;;;;;;;5.07;2.20;;;14.70;99.90;;;;;;5031061;28;20033;-77
2022/06/08 04:18:03;;;;;;;6.90;2.13;;;14.70;99.90;;;;;;5048583;28;20044;-79
2022/06/08 04:20:29;;;;;;;5.82;2.47;;;14.70;99.90;;;;;;5030787;28;20063;-78
2022/06/08 04:22:54;;;;;;;6.72;1.90;;;14.80;99.90;;;;;;5048903;28;20065;-80
2022/06/08 04:25:20;;;;;;;5.70;2.05;;;14.80;99.90;;;;;;5048600;28;20395;-79
2022/06/08 04:27:46;;;;;;;8.23;2.40;;;14.80;99.90;;;;;;5047107;28;20092;-77
2022/06/08 04:30:12;;;;;;;5.45;2.95;;;14.80;99.90;;;;;;5028328;28;20036;-78
2022/06/08 04:32:37;;;;;;;8.23;3.00;;;14.80;99.90;;;;;;5049374;28;20047;-78
2022/06/08 04:35:03;;;;;;;10.23;4.10;;;14.80;99.90;;;;;;5027802;28;20021;-79
2022/06/08 04:37:29;;;;;;;9.52;3.60;;;14.80;99.90;;;;;;5030292;28;20032;-77
2022/06/08 04:39:55;;;;;;;11.00;4.03;;;14.80;99.90;;;;;;5053784;28;20029;-77
2022/06/08 04:42:20;;;;;;;6.22;3.03;;;14.80;99.90;;;;;;5059655;28;20610;-77
2022/06/08 04:44:46;;;;;;;7.32;3.40;;;14.80;99.90;;;;;;5044327;28;20533;-75
2022/06/08 04:47:12;;;;;;;8.63;3.45;;;14.80;99.90;;;;;;5046824;28;20052;-78
2022/06/08 04:49:38;;;;;;;10.05;4.05;;;14.80;99.90;;;;;;5045831;28;20395;-78
2022/06/08 04:52:05;;;;;;;9.60;4.03;;;14.90;99.90;;;;;;5050313;28;20033;-75
2022/06/08 04:54:31;;;;;;;12.20;4.82;;;14.90;99.90;;;;;;5030041;28;20033;-76
2022/06/08 04:56:57;;;;;;;12.45;5.53;;;14.90;99.90;;;;;;5047708;28;20037;-78
2022/06/08 04:59:23;;;;;;;8.43;4.38;;;14.90;99.90;;;;;;5053470;28;20054;-78
2022/06/08 05:01:48;;;;;;;12.32;5.50;;;14.90;99.90;;;;;;5046801;28;20036;-78
2022/06/08 05:04:14;;;;;;;9.50;4.65;;;14.90;99.90;;;;;;5046278;28;21625;-78
2022/06/08 05:06:40;;;;;;;11.05;4.00;;;14.90;99.90;;;;;;5047208;28;20122;-77
2022/06/08 05:09:06;;;;;;;10.75;4.70;;;14.90;99.90;;;;;;5046690;28;20071;-77
2022/06/08 05:11:31;;;;;;;10.13;4.60;;;15.00;99.90;;;;;;5031101;28;20036;-78
2022/06/08 05:13:57;;;;;;;9.75;4.53;;;15.00;99.90;;;;;;5047255;28;20473;-78
2022/06/08 05:16:24;;;;;;;10.57;4.28;;;15.00;99.90;;;;;;5046846;28;20550;-77
2022/06/08 05:18:49;;;;;;;10.35;4.78;;;15.00;99.90;;;;;;5028846;28;20029;-77
2022/06/08 05:21:15;;;;;;;9.50;4.68;;;15.00;99.90;;;;;;5029829;28;20398;-76
2022/06/08 05:23:43;;;;;;;9.55;5.43;;;15.00;99.90;;;;;;5048107;28;20044;-76
2022/06/08 05:26:10;;;;;;;10.73;5.50;;;14.90;99.90;;;;;;5047076;28;20029;-76
2022/06/08 05:28:36;;;;;;;13.88;5.35;;;14.90;99.90;;;;;;5028414;28;20032;-77
2022/06/08 05:31:02;;;;;;;12.82;5.75;;;14.90;99.90;;;;;;5045920;28;20682;-76
2022/06/08 05:33:28;;;;;;;16.63;6.80;;;14.90;99.90;;;;;;5046481;28;20120;-76
2022/06/08 05:35:55;;;;;;;20.08;7.15;;;15.00;99.90;;;;;;5051749;28;20116;-77
2022/06/08 05:38:21;;;;;;;20.63;7.38;;;14.90;99.90;;;;;;5027741;28;20092;-77
2022/06/08 05:40:47;;;;;;;15.95;7.28;;;14.90;99.90;;;;;;5047603;28;20029;-76
2022/06/08 05:43:14;;;;;;;18.13;7.00;;;14.90;99.90;;;;;;5030780;28;20110;-74
2022/06/08 05:45:41;;;;;;;20.70;6.78;;;14.90;99.90;;;;;;5027205;28;20049;-75
2022/06/08 05:48:07;;;;;;;10.65;5.43;;;14.90;99.90;;;;;;5037127;28;20063;-76
2022/06/08 05:50:33;;;;;;;18.13;5.85;;;14.90;99.90;;;;;;5030628;28;20029;-76
2022/06/08 05:52:59;;;;;;;15.57;5.22;;;14.90;99.90;;;;;;5049520;28;20021;-76
2022/06/08 05:55:25;;;;;;;17.70;5.78;;;14.90;99.90;;;;;;5035600;28;20036;-77
2022/06/08 05:57:51;;;;;;;11.30;5.32;;;14.90;99.90;;;;;;5029643;28;20037;-75
2022/06/08 06:00:22;;;;;;;14.50;6.03;;;14.90;99.90;;;;;;5043932;28;20091;-75
2022/06/08 06:02:48;;;;;;;20.20;6.18;;;15.00;99.90;;;;;;5039903;28;20407;-77
2022/06/08 06:05:16;;;;;;;15.85;5.90;;;15.00;99.90;;;;;;5029400;28;20044;-76
2022/06/08 06:07:43;;;;;;;21.33;6.78;;;15.00;99.90;;;;;;5044462;28;20478;-74
2022/06/08 06:10:10;;;;;;;19.60;6.82;;;15.00;99.90;;;;;;5027797;28;20442;-75
2022/06/08 06:12:35;;;;;;;23.13;7.15;;;15.10;99.90;;;;;;5048081;28;20029;-74
2022/06/08 06:15:02;;;;;;;23.02;6.68;;;15.10;99.90;;;;;;5059470;28;20086;-77
2022/06/08 06:17:28;;;;;;;16.48;5.80;;;15.10;99.90;;;;;;5044367;28;20458;-77
2022/06/08 06:19:54;;;;;;;21.17;6.68;;;15.20;99.90;;;;;;5022726;28;20032;-74
2022/06/08 06:22:20;;;;;;;15.38;5.78;;;15.20;99.90;;;;;;5032908;28;20037;-76
2022/06/08 06:24:46;;;;;;;21.40;6.35;;;15.20;99.90;;;;;;5035340;28;20063;-75
2022/06/08 06:27:11;;;;;;;22.13;6.82;;;15.30;99.90;;;;;;5043521;28;20079;-76
2022/06/08 06:29:37;;;;;;;17.42;6.00;;;15.30;99.90;;;;;;5041662;28;20358;-76
2022/06/08 06:32:07;;;;;;;18.13;5.82;;;15.30;99.90;;;;;;5034693;28;20407;-76
2022/06/08 06:34:33;;;;;;;24.02;6.57;;;15.30;99.90;;;;;;5041204;28;20103;-76
2022/06/08 06:36:59;;;;;;;17.73;6.60;;;15.40;99.90;;;;;;5048779;28;20529;-76
2022/06/08 06:39:26;;;;;;;16.27;6.60;;;15.50;99.90;;;;;;5029496;28;20491;-76
2022/06/08 06:41:53;;;;;;;15.63;6.20;;;15.50;99.90;;;;;;5045412;28;20047;-76
2022/06/08 06:44:19;;;;;;;14.20;5.75;;;15.50;99.90;;;;;;5053418;28;20033;-74
2022/06/08 06:46:45;;;;;;;14.32;5.65;;;15.60;99.90;;;;;;5048129;28;20057;-75
2022/06/08 06:49:12;;;;;;;17.75;5.63;;;15.50;99.90;;;;;;5061227;28;20028;-78
2022/06/08 06:51:38;;;;;;;12.05;5.40;;;15.60;99.90;;;;;;5048096;28;20247;-75
2022/06/08 06:54:05;;;;;;;17.10;6.40;;;15.60;99.90;;;;;;5055848;28;20660;-76
2022/06/08 06:56:32;;;;;;;14.65;5.80;;;15.60;99.90;;;;;;5047023;28;20108;-75
2022/06/08 06:58:59;;;;;;;11.85;5.57;;;15.60;99.90;;;;;;5029351;28;20166;-76
2022/06/08 07:01:24;;;;;;;17.05;7.00;;;15.60;99.90;;;;;;5049428;28;20048;-74
2022/06/08 07:03:50;;;;;;;14.52;6.10;;;15.70;99.90;;;;;;5032303;28;20064;-76
2022/06/08 07:06:16;;;;;;;14.50;5.95;;;15.70;99.90;;;;;;5042140;28;20033;-75
2022/06/08 07:08:41;;;;;;;12.07;6.00;;;15.80;99.90;;;;;;5032881;28;20068;-75
2022/06/08 07:13:52;;;;;;;15.98;5.88;;;15.80;99.90;;;;;;5041551;28;20044;-78
2022/06/08 07:16:18;;;;;;;14.57;6.22;;;15.80;99.90;;;;;;5043946;28;20033;-76
2022/06/08 07:18:44;;;;;;;16.80;7.20;;;15.80;99.90;;;;;;5037086;28;20448;-76
2022/06/08 07:21:10;;;;;;;15.50;6.65;;;15.80;99.90;;;;;;5016278;28;20394;-74
2022/06/08 07:23:36;;;;;;;18.70;7.07;;;15.90;99.90;;;;;;5024210;28;20041;-75
2022/06/08 07:26:02;;;;;;;13.60;6.25;;;16.00;99.90;;;;;;5044676;28;20028;-75
2022/06/08 07:28:28;;;;;;;16.23;6.72;;;16.00;99.90;;;;;;5046612;28;20069;-74
2022/06/08 07:30:54;;;;;;;12.65;5.72;;;16.10;99.90;;;;;;5047265;28;20032;-73
2022/06/08 07:33:20;;;;;;;12.55;5.25;;;16.10;99.90;;;;;;5047600;28;20029;-73
2022/06/08 07:35:47;;;;;;;15.38;5.80;;;16.10;99.90;;;;;;5047067;28;20033;-75
2022/06/08 07:38:12;;;;;;;17.00;5.35;;;16.10;99.90;;;;;;5030822;28;20021;-74
2022/06/08 07:40:38;;;;;;;13.32;5.30;;;16.00;99.90;;;;;;5044967;28;20479;-75
2022/06/08 07:43:04;;;;;;;14.93;4.82;;;16.00;99.90;;;;;;5030807;28;20399;-73
2022/06/08 07:45:30;;;;;;;14.55;4.53;;;16.00;99.90;;;;;;5050068;28;20499;-74
2022/06/08 07:50:42;;;;;;;11.48;3.90;;;16.20;99.90;;;;;;5050445;28;20121;-75
2022/06/08 07:53:08;;;;;;;8.55;3.78;;;16.20;99.90;;;;;;5032576;28;20127;-73
2022/06/08 07:55:33;;;;;;;15.13;3.70;;;16.30;99.90;;;;;;5032706;28;20055;-73
2022/06/08 07:57:59;;;;;;;12.23;3.72;;;16.40;99.90;;;;;;5032475;28;20024;-75
2022/06/08 08:00:26;;;;;;;12.50;4.18;;;16.40;99.90;;;;;;5050228;28;20566;-74
2022/06/08 08:02:52;;;;;;;19.58;5.38;;;16.50;99.90;;;;;;5050003;28;20025;-77
2022/06/08 08:05:19;;;;;;;15.93;4.75;;;16.70;99.90;;;;;;5050324;28;20471;-75
2022/06/08 08:07:45;;;;;;;15.75;4.68;;;17.00;99.90;;;;;;5032179;28;20127;-74
2022/06/08 08:10:18;;;;;;;17.83;4.65;;;17.20;99.90;;;;;;5049002;28;20099;-74
2022/06/08 08:12:44;;;;;;;15.13;4.47;;;17.30;99.90;;;;;;5050049;28;20039;-75
2022/06/08 08:15:10;;;;;;;10.38;2.67;;;17.40;99.90;;;;;;5030073;28;20705;-75
2022/06/08 08:17:36;;;;;;;15.68;4.32;;;17.30;99.90;;;;;;5016546;28;20474;-74
2022/06/08 08:20:04;;;;;;;15.35;4.35;;;17.10;99.90;;;;;;5050073;28;20036;-74
2022/06/08 08:22:30;;;;;;;18.40;4.70;;;17.00;99.90;;;;;;5049726;28;20076;-76
2022/06/08 08:24:56;;;;;;;17.67;4.25;;;16.80;99.90;;;;;;5052078;28;20052;-75
2022/06/08 08:27:21;;;;;;;10.52;3.45;;;16.70;99.90;;;;;;5046331;28;20025;-76
2022/06/08 08:29:48;;;;;;;15.13;3.85;;;16.70;99.90;;;;;;5048440;28;20470;-76
2022/06/08 08:32:14;;;;;;;11.07;3.17;;;16.80;99.90;;;;;;5048164;28;20043;-76
2022/06/08 08:34:39;;;;;;;11.18;2.60;;;16.90;99.90;;;;;;5046960;28;20047;-76
2022/06/08 08:37:05;;;;;;;8.80;2.33;;;17.00;99.90;;;;;;5048502;28;20104;-77
2022/06/08 08:39:31;;;;;;;7.40;2.47;;;17.00;99.90;;;;;;5031151;28;20171;-75
2022/06/08 08:44:44;;;;;;;8.15;2.08;;;17.00;99.90;;;;;;5049774;28;20036;-76
2022/06/08 08:47:28;;;;;;;6.97;1.27;;;17.00;99.90;;;;;;5049696;28;20045;-77
2022/06/08 08:49:55;;;;;;;6.15;1.50;;;16.90;99.90;;;;;;5031078;28;20514;-75
2022/06/08 08:52:36;;;;;;;5.82;1.70;;;16.80;99.90;;;;;;5032700;28;20090;-75
2022/06/08 08:55:33;;;;;;;6.80;1.52;;;16.90;99.90;;;;;;5051563;28;20368;-77
2022/06/08 08:58:11;;;;;;;7.53;2.60;;;17.20;99.90;;;;;;5013980;28;20114;-77
2022/06/08 09:00:38;;;;;;;17.10;3.25;;;17.40;99.90;;;;;;5032052;28;20045;-75
2022/06/08 09:03:33;;;;;;;12.30;3.13;;;17.80;99.90;;;;;;5030046;28;20055;-76
2022/06/08 09:06:07;;;;;;;15.07;3.20;;;18.00;99.90;;;;;;5028676;28;20482;-77
2022/06/08 09:08:33;;;;;;;17.50;3.40;;;17.90;99.90;;;;;;5030354;28;20103;-75
2022/06/08 09:11:00;;;;;;;17.77;3.15;;;17.80;99.90;;;;;;5046672;28;20510;-75
2022/06/08 09:13:46;;;;;;;15.63;2.83;;;17.60;99.90;;;;;;5042530;28;20029;-82
2022/06/08 09:16:42;;;;;;;19.95;3.33;;;17.50;99.90;;;;;;5039012;28;20033;-78
2022/06/08 09:19:29;;;;;;;17.92;2.92;;;17.50;99.90;;;;;;5027765;28;20021;-79
2022/06/08 09:22:03;;;;;;;14.15;3.10;;;17.80;99.90;;;;;;5046170;28;20061;-86
2022/06/08 09:24:39;;;;;;;14.32;2.67;;;17.80;99.90;;;;;;5049242;28;20033;-83
2022/06/08 09:27:23;;;;;;;14.70;2.75;;;17.80;99.90;;;;;;5030228;28;20040;-78
2022/06/08 09:30:01;;;;;;;17.27;3.10;;;17.80;99.90;;;;;;5048673;28;20481;-81
2022/06/08 09:32:49;;;;;;;14.43;2.88;;;17.90;99.90;;;;;;5046435;28;20887;-79
2022/06/08 09:35:31;;;;;;;14.15;2.53;;;17.90;99.90;;;;;;5045939;28;20049;-82
2022/06/08 09:38:19;;;;;;;15.13;2.90;;;17.90;99.90;;;;;;5049233;28;20021;-82
2022/06/08 09:40:48;;;;;;;11.82;2.72;;;17.80;99.90;;;;;;5035078;28;20025;-78
2022/06/08 09:43:40;;;;;;;12.03;2.47;;;17.80;99.90;;;;;;5031040;28;20087;-80
2022/06/08 09:46:24;;;;;;;15.25;2.30;;;18.00;99.90;;;;;;5049652;28;20103;-78
2022/06/08 09:52:08;;;;;;;11.60;2.33;;;17.90;99.90;;;;;;5049222;28;20449;-79
2022/06/08 09:55:04;;;;;;;9.38;1.58;;;17.80;99.90;;;;;;5043801;28;20025;-79
2022/06/08 09:58:10;;;;;;;8.68;2.03;;;17.80;99.90;;;;;;5048773;28;20473;-79
2022/06/08 10:00:47;;;;;;;7.05;1.90;;;17.70;99.90;;;;;;5048150;28;20033;-78
2022/06/08 10:03:22;;;;;;;7.93;1.50;;;17.70;99.90;;;;;;5030138;28;20032;-79
2022/06/08 10:06:06;;;;;;;9.50;1.50;;;17.80;99.90;;;;;;5048610;28;20037;-80
2022/06/08 10:09:00;;;;;;;8.60;1.83;;;17.90;99.90;;;;;;5048347;28;20702;-80
2022/06/08 10:11:34;;;;;;;11.18;1.60;;;18.00;99.90;;;;;;5051875;28;20741;-80
2022/06/08 10:14:09;;;;;;;10.27;2.05;;;18.00;99.90;;;;;;5043488;28;20048;-78
2022/06/08 10:16:38;;;;;;;10.50;2.15;;;18.00;99.90;;;;;;5047309;28;20033;-85
2022/06/08 10:19:09;;;;;;;14.70;2.63;;;18.00;99.90;;;;;;5047403;28;20072;-79
2022/06/08 10:21:41;;;;;;;19.77;2.60;;;17.80;99.90;;;;;;5047459;28;20025;-81
2022/06/08 10:24:07;;;;;;;14.38;2.75;;;17.60;99.90;;;;;;5047077;28;20061;-81
2022/06/08 10:26:41;;;;;;;16.42;3.47;;;17.80;99.90;;;;;;5047040;28;20063;-83
2022/06/08 10:29:13;;;;;;;16.10;2.42;;;18.00;99.90;;;;;;5029140;28;20372;-81
2022/06/08 10:31:54;;;;;;;13.30;2.90;;;18.10;99.90;;;;;;5028441;28;20762;-78
2022/06/08 10:34:24;;;;;;;13.98;2.38;;;18.30;99.90;;;;;;5045695;28;20048;-78
2022/06/08 10:36:53;;;;;;;11.15;2.47;;;18.20;99.90;;;;;;5046830;28;20458;-79
2022/06/08 10:39:19;;;;;;;11.98;2.25;;;18.20;99.90;;;;;;5042604;28;20064;-76
2022/06/08 10:45:23;;;;;;;14.18;2.92;;;18.30;99.90;;;;;;5045734;28;20182;-77
2022/06/08 10:48:11;;;;;;;13.88;2.50;;;18.40;99.90;;;;;;5040419;28;20049;-76
2022/06/08 10:50:39;;;;;;;15.30;2.40;;;18.60;99.90;;;;;;5041011;28;20092;-76
2022/06/08 10:56:23;;;;;;;10.55;2.35;;;18.50;99.90;;;;;;5032146;28;20100;-75
2022/06/08 10:59:15;;;;;;;14.93;2.53;;;18.40;99.90;;;;;;5039677;28;20391;-77
2022/06/08 11:01:41;;;;;;;17.23;2.85;;;18.30;99.90;;;;;;5049859;28;20031;-74
2022/06/08 11:04:32;;;;;;;19.38;3.05;;;18.20;99.90;;;;;;5047037;28;20127;-76
2022/06/08 11:07:01;;;;;;;20.42;2.47;;;18.40;99.90;;;;;;5041224;28;20045;-75
2022/06/08 11:09:33;;;;;;;13.05;2.28;;;18.60;99.60;;;;;;5035132;28;20041;-72
2022/06/08 11:12:04;;;;;;;17.10;2.92;;;18.80;99.40;;;;;;5040945;28;20032;-73
2022/06/08 11:14:30;;;;;;;16.30;2.63;;;18.90;99.20;;;;;;5049025;28;20036;-75
2022/06/08 11:17:08;;;;;;;15.38;2.67;;;18.70;98.50;;;;;;5049132;28;20103;-75
2022/06/08 11:19:35;;;;;;;15.13;2.22;;;18.30;99.00;;;;;;5051292;28;20028;-76
2022/06/08 11:22:11;;;;;;;16.35;2.70;;;18.00;99.90;;;;;;5051680;28;20025;-72
2022/06/08 11:24:45;;;;;;;19.35;3.28;;;17.70;99.90;;;;;;5036193;28;20135;-78
2022/06/08 11:27:11;;;;;;;16.35;2.88;;;17.70;99.90;;;;;;5046603;28;20035;-80
2022/06/08 11:29:46;;;;;;;16.05;2.70;;;17.90;99.90;;;;;;5044372;28;20063;-76
2022/06/08 11:32:21;;;;;;;13.98;2.83;;;18.60;99.90;;;;;;5044397;28;20036;-75
2022/06/08 11:35:05;;;;;;;14.00;2.45;;;19.00;99.20;;;;;;5050094;28;20029;-75
2022/06/08 11:37:36;;;;;;;17.50;2.80;;;19.10;98.80;;;;;;5044689;28;20102;-80
2022/06/08 11:40:27;;;;;;;13.00;2.42;;;19.00;98.10;;;;;;5045481;28;20032;-77
2022/06/08 11:43:15;;;;;;;21.23;3.05;;;18.90;98.40;;;;;;5048848;28;20036;-79
2022/06/08 11:45:47;;;;;;;15.18;3.40;;;19.00;99.30;;;;;;5031069;28;20107;-78
2022/06/08 11:48:17;;;;;;;16.80;2.90;;;19.20;98.80;;;;;;5020506;28;20127;-76
2022/06/08 11:50:47;;;;;;;14.95;3.08;;;19.40;99.10;;;;;;5050555;28;20033;-79
2022/06/08 11:53:35;;;;;;;17.90;3.03;;;19.40;99.20;;;;;;5033101;28;20110;-78
2022/06/08 11:56:03;;;;;;;16.60;2.90;;;19.60;98.20;;;;;;5050623;28;20111;-75
2022/06/08 11:58:30;;;;;;;15.05;2.28;;;19.80;98.40;;;;;;5050638;28;20037;-75
2022/06/08 12:01:09;;;;;;;16.40;2.65;;;19.90;97.80;;;;;;5049365;28;20044;-80
2022/06/08 12:03:42;;;;;;;19.48;3.20;;;20.00;96.20;;;;;;5029008;28;20029;-72
2022/06/08 12:06:14;;;;;;;19.77;3.17;;;20.00;96.90;;;;;;5043534;28;20021;-77
2022/06/08 12:08:44;;;;;;;19.10;3.22;;;20.00;97.00;;;;;;5042771;28;20466;-75
2022/06/08 12:11:12;;;;;;;16.50;3.10;;;19.80;96.60;;;;;;5049711;28;20021;-75
2022/06/08 12:13:38;;;;;;;19.52;3.05;;;19.70;96.70;;;;;;5048003;28;20818;-78
2022/06/08 12:16:22;;;;;;;15.95;2.72;;;19.70;97.40;;;;;;5048144;28;20044;-76
2022/06/08 12:18:56;;;;;;;16.45;2.85;;;19.40;97.10;;;;;;5048208;28;20068;-77
2022/06/08 12:21:34;;;;;;;16.23;2.88;;;19.10;98.50;;;;;;5048704;28;20033;-73
2022/06/08 12:24:20;;;;;;;18.52;3.67;;;18.80;99.00;;;;;;5026591;28;20060;-74
2022/06/08 12:26:55;;;;;;;16.08;3.38;;;18.60;99.00;;;;;;5045004;28;20058;-72
2022/06/08 12:29:26;;;;;;;16.02;3.05;;;18.40;99.90;;;;;;5039988;28;20100;-75
2022/06/08 12:32:08;;;;;;;20.60;3.47;;;18.10;99.90;;;;;;5047883;28;20037;-75
2022/06/08 12:34:40;;;;;;;18.33;3.28;;;17.90;99.90;;;;;;5047990;28;20029;-74
2022/06/08 12:37:22;;;;;;;19.08;3.38;;;17.80;99.90;;;;;;5044164;28;20040;-75
2022/06/08 12:39:49;;;;;;;13.40;2.85;;;17.50;99.90;;;;;;5046931;28;20188;-76
2022/06/08 12:42:27;;;;;;;13.20;2.50;;;17.30;99.90;;;;;;5042140;28;20044;-75
2022/06/08 12:44:55;;;;;;;14.40;2.88;;;17.10;99.90;;;;;;5029603;28;20742;-75
2022/06/08 12:47:26;;;;;;;15.15;2.40;;;17.00;99.90;;;;;;5029763;28;20440;-77
2022/06/08 12:50:20;;;;;;;17.05;3.22;;;17.10;99.90;;;;;;5031833;28;20049;-73
2022/06/08 12:52:46;;;;;;;15.85;3.10;;;17.20;99.90;;;;;;5024492;28;20540;-75
2022/06/08 12:55:16;;;;;;;12.70;2.63;;;17.60;99.90;;;;;;5044395;28;20036;-74
2022/06/08 12:57:44;;;;;;;10.65;2.83;;;17.80;99.90;;;;;;5049113;28;20025;-76
2022/06/08 13:00:22;;;;;;;14.60;2.38;;;18.00;99.90;;;;;;5048675;28;20099;-75
2022/06/08 13:02:50;;;;;;;16.55;2.67;;;18.20;99.90;;;;;;5047964;28;20838;-78
2022/06/08 13:05:29;;;;;;;12.55;2.42;;;18.40;99.90;;;;;;5034296;28;20724;-78
2022/06/08 13:07:56;;;;;;;11.98;2.50;;;18.60;99.90;;;;;;5054340;28;20036;-86
2022/06/08 13:10:25;;;;;;;16.90;2.47;;;18.80;99.90;;;;;;5060754;28;20491;-77
2022/06/08 13:12:54;;;;;;;9.18;1.73;;;19.00;99.90;;;;;;5055317;28;20061;-76
2022/06/08 13:15:26;;;;;;;11.95;2.00;;;19.00;99.90;;;;;;5064109;28;20028;-77
2022/06/08 13:17:52;;;;;;;10.88;1.73;;;19.00;99.90;;;;;;5049167;28;20098;-76
2022/06/08 13:20:21;;;;;;;11.68;1.67;;;19.20;99.90;;;;;;5060480;28;20403;-77
2022/06/08 13:22:47;;;;;;;13.93;1.90;;;19.40;99.90;;;;;;5033827;28;20039;-76
2022/06/08 13:25:17;;;;;;;11.75;2.15;;;19.60;99.20;;;;;;5055856;28;20033;-74
2022/06/08 13:27:45;;;;;;;12.10;2.50;;;19.60;98.50;;;;;;5034952;28;20042;-77